sensor_id;sensor_type;location;lat;lon;timestamp;temperature;humidity
5675;DHT22;2860;54.284;10.158;2023-12-20T00:00:57;3.70;99.90
5675;DHT22;2860;54.284;10.158;2023-12-20T00:03:23;3.70;99.90
5675;DHT22;2860;54.284;10.158;2023-12-20T00:05:49;3.70;99.90
5675;DHT22;2860;54.284;10.158;2023-12-20T00:08:15;3.70;99.90
5675;DHT22;2860;54.284;10.158;2023-12-20T00:10:41;3.60;99.90
5675;DHT22;2860;54.284;10.158;2023-12-20T00:13:06;3.60;99.90
5675;DHT22;2860;54.284;10.158;2023-12-20T00:15:33;3.60;99.90
5675;DHT22;2860;54.284;10.158;2023-12-20T00:17:59;3.70;99.90
5675;DHT22;2860;54.284;10.158;2023-12-20T00:20:24;3.60;99.90
5675;DHT22;2860;54.284;10.158;2023-12-20T00:22:50;3.60;99.90
5675;DHT22;2860;54.284;10.158;2023-12-20T00:25:16;3.70;99.90
5675;DHT22;2860;54.284;10.158;2023-12-20T00:27:41;3.60;99.90
5675;DHT22;2860;54.284;10.158;2023-12-20T00:30:07;3.70;99.90
5675;DHT22;2860;54.284;10.158;2023-12-20T00:32:35;3.70;99.90
5675;DHT22;2860;54.284;10.158;2023-12-20T00:35:00;3.80;99.90
5675;DHT22;2860;54.284;10.158;2023-12-20T00:37:26;3.90;99.90
5675;DHT22;2860;54.284;10.158;2023-12-20T00:39:51;3.90;99.90
5675;DHT22;2860;54.284;10.158;2023-12-20T00:42:17;3.90;99.90
5675;DHT22;2860;54.284;10.158;2023-12-20T00:44:42;3.90;99.90
5675;DHT22;2860;54.284;10.158;2023-12-20T00:47:08;4.00;99.90
5675;DHT22;2860;54.284;10.158;2023-12-20T00:49:33;4.00;99.90
5675;DHT22;2860;54.284;10.158;2023-12-20T00:52:00;3.90;99.90
5675;DHT22;2860;54.284;10.158;2023-12-20T00:54:25;3.80;99.90
5675;DHT22;2860;54.284;10.158;2023-12-20T00:56:51;3.70;99.90
5675;DHT22;2860;54.284;10.158;2023-12-20T00:59:16;3.60;99.90
5675;DHT22;2860;54.284;10.158;2023-12-20T01:01:43;3.60;99.90
5675;DHT22;2860;54.284;10.158;2023-12-20T01:04:08;3.50;99.90
5675;DHT22;2860;54.284;10.158;2023-12-20T01:06:34;3.50;99.90
5675;DHT22;2860;54.284;10.158;2023-12-20T01:08:59;3.40;99.90
5675;DHT22;2860;54.284;10.158;2023-12-20T01:11:25;3.40;99.90
5675;DHT22;2860;54.284;10.158;2023-12-20T01:13:50;3.40;99.90
5675;DHT22;2860;54.284;10.158;2023-12-20T01:16:16;3.40;99.90
5675;DHT22;2860;54.284;10.158;2023-12-20T01:18:41;3.40;99.90
5675;DHT22;2860;54.284;10.158;2023-12-20T01:21:06;3.40;99.90
5675;DHT22;2860;54.284;10.158;2023-12-20T01:23:32;3.40;99.90
5675;DHT22;2860;54.284;10.158;2023-12-20T01:25:58;3.50;99.90
5675;DHT22;2860;54.284;10.158;2023-12-20T01:28:25;3.50;99.90
5675;DHT22;2860;54.284;10.158;2023-12-20T01:30:51;3.60;99.90
5675;DHT22;2860;54.284;10.158;2023-12-20T01:33:16;3.60;99.90
5675;DHT22;2860;54.284;10.158;2023-12-20T01:35:41;3.70;99.90
5675;DHT22;2860;54.284;10.158;2023-12-20T01:38:07;3.70;99.90
5675;DHT22;2860;54.284;10.158;2023-12-20T01:40:32;3.70;99.90
5675;DHT22;2860;54.284;10.158;2023-12-20T01:43:04;3.70;99.90
5675;DHT22;2860;54.284;10.158;2023-12-20T01:45:30;3.80;99.90
5675;DHT22;2860;54.284;10.158;2023-12-20T01:47:57;3.80;99.90
5675;DHT22;2860;54.284;10.158;2023-12-20T01:50:24;3.90;99.90
5675;DHT22;2860;54.284;10.158;2023-12-20T01:52:50;3.90;99.90
5675;DHT22;2860;54.284;10.158;2023-12-20T01:55:18;4.00;99.90
5675;DHT22;2860;54.284;10.158;2023-12-20T01:57:45;4.00;99.90
5675;DHT22;2860;54.284;10.158;2023-12-20T02:00:12;4.00;99.90
5675;DHT22;2860;54.284;10.158;2023-12-20T02:02:40;4.00;99.90
5675;DHT22;2860;54.284;10.158;2023-12-20T02:05:09;4.00;99.90
5675;DHT22;2860;54.284;10.158;2023-12-20T02:07:35;4.00;99.90
5675;DHT22;2860;54.284;10.158;2023-12-20T02:10:02;4.00;99.90
5675;DHT22;2860;54.284;10.158;2023-12-20T02:12:27;4.00;99.90
5675;DHT22;2860;54.284;10.158;2023-12-20T02:14:53;4.00;99.90
5675;DHT22;2860;54.284;10.158;2023-12-20T02:17:19;4.00;99.90
5675;DHT22;2860;54.284;10.158;2023-12-20T02:19:45;4.00;99.90
5675;DHT22;2860;54.284;10.158;2023-12-20T02:22:11;4.00;99.90
5675;DHT22;2860;54.284;10.158;2023-12-20T02:24:37;4.00;99.90
5675;DHT22;2860;54.284;10.158;2023-12-20T02:27:03;4.00;99.90
5675;DHT22;2860;54.284;10.158;2023-12-20T02:29:30;4.10;99.90
5675;DHT22;2860;54.284;10.158;2023-12-20T02:31:56;4.10;99.90
5675;DHT22;2860;54.284;10.158;2023-12-20T02:34:21;4.20;99.90
5675;DHT22;2860;54.284;10.158;2023-12-20T02:36:47;4.30;99.90
5675;DHT22;2860;54.284;10.158;2023-12-20T02:39:12;4.40;99.90
5675;DHT22;2860;54.284;10.158;2023-12-20T02:41:38;4.40;99.90
5675;DHT22;2860;54.284;10.158;2023-12-20T02:44:04;4.50;99.90
5675;DHT22;2860;54.284;10.158;2023-12-20T02:46:29;4.50;99.90
5675;DHT22;2860;54.284;10.158;2023-12-20T02:48:55;4.60;99.90
5675;DHT22;2860;54.284;10.158;2023-12-20T02:51:20;4.60;99.90
5675;DHT22;2860;54.284;10.158;2023-12-20T02:53:46;4.60;99.90
5675;DHT22;2860;54.284;10.158;2023-12-20T02:56:11;4.70;99.90
5675;DHT22;2860;54.284;10.158;2023-12-20T02:58:37;4.70;99.90
5675;DHT22;2860;54.284;10.158;2023-12-20T03:01:02;4.80;99.90
5675;DHT22;2860;54.284;10.158;2023-12-20T03:03:28;4.80;99.90
5675;DHT22;2860;54.284;10.158;2023-12-20T03:05:53;4.80;99.90
5675;DHT22;2860;54.284;10.158;2023-12-20T03:08:19;4.80;99.90
5675;DHT22;2860;54.284;10.158;2023-12-20T03:10:45;4.80;99.90
5675;DHT22;2860;54.284;10.158;2023-12-20T03:13:10;4.80;99.90
5675;DHT22;2860;54.284;10.158;2023-12-20T03:15:35;4.80;99.90
5675;DHT22;2860;54.284;10.158;2023-12-20T03:18:02;4.70;99.90
5675;DHT22;2860;54.284;10.158;2023-12-20T03:20:28;4.70;99.90
5675;DHT22;2860;54.284;10.158;2023-12-20T03:22:53;4.80;99.90
5675;DHT22;2860;54.284;10.158;2023-12-20T03:25:19;4.80;99.90
5675;DHT22;2860;54.284;10.158;2023-12-20T03:27:44;4.80;99.90
5675;DHT22;2860;54.284;10.158;2023-12-20T03:30:10;4.90;99.90
5675;DHT22;2860;54.284;10.158;2023-12-20T03:32:36;4.90;99.90
5675;DHT22;2860;54.284;10.158;2023-12-20T03:35:03;4.90;99.90
5675;DHT22;2860;54.284;10.158;2023-12-20T03:37:28;4.90;99.90
5675;DHT22;2860;54.284;10.158;2023-12-20T03:39:54;5.00;99.90
5675;DHT22;2860;54.284;10.158;2023-12-20T03:42:19;5.00;99.90
5675;DHT22;2860;54.284;10.158;2023-12-20T03:44:45;5.00;99.90
5675;DHT22;2860;54.284;10.158;2023-12-20T03:47:10;5.00;99.90
5675;DHT22;2860;54.284;10.158;2023-12-20T03:49:35;5.00;99.90
5675;DHT22;2860;54.284;10.158;2023-12-20T03:52:02;5.00;99.90
5675;DHT22;2860;54.284;10.158;2023-12-20T03:54:28;5.00;99.90
5675;DHT22;2860;54.284;10.158;2023-12-20T03:56:54;5.00;99.90
5675;DHT22;2860;54.284;10.158;2023-12-20T03:59:19;5.00;99.90
5675;DHT22;2860;54.284;10.158;2023-12-20T04:01:45;5.00;99.90
5675;DHT22;2860;54.284;10.158;2023-12-20T04:04:11;5.00;99.90
5675;DHT22;2860;54.284;10.158;2023-12-20T04:06:37;5.00;99.90
5675;DHT22;2860;54.284;10.158;2023-12-20T04:09:03;4.90;99.90
5675;DHT22;2860;54.284;10.158;2023-12-20T04:11:28;4.90;99.90
5675;DHT22;2860;54.284;10.158;2023-12-20T04:13:54;4.90;99.90
5675;DHT22;2860;54.284;10.158;2023-12-20T04:16:19;4.90;99.90
5675;DHT22;2860;54.284;10.158;2023-12-20T04:18:45;4.90;99.90
5675;DHT22;2860;54.284;10.158;2023-12-20T04:21:10;4.90;99.90
5675;DHT22;2860;54.284;10.158;2023-12-20T04:23:36;4.90;99.90
5675;DHT22;2860;54.284;10.158;2023-12-20T04:26:01;4.90;99.90
5675;DHT22;2860;54.284;10.158;2023-12-20T04:28:27;4.90;99.90
5675;DHT22;2860;54.284;10.158;2023-12-20T04:30:55;5.00;99.90
5675;DHT22;2860;54.284;10.158;2023-12-20T04:33:21;5.00;99.90
5675;DHT22;2860;54.284;10.158;2023-12-20T04:35:47;4.90;99.90
5675;DHT22;2860;54.284;10.158;2023-12-20T04:38:12;4.90;99.90
5675;DHT22;2860;54.284;10.158;2023-12-20T04:40:38;4.80;99.90
5675;DHT22;2860;54.284;10.158;2023-12-20T04:43:05;4.80;99.90
5675;DHT22;2860;54.284;10.158;2023-12-20T04:45:31;4.80;99.90
5675;DHT22;2860;54.284;10.158;2023-12-20T04:47:56;4.80;99.90
5675;DHT22;2860;54.284;10.158;2023-12-20T04:50:22;4.80;99.90
5675;DHT22;2860;54.284;10.158;2023-12-20T04:52:47;4.80;99.90
5675;DHT22;2860;54.284;10.158;2023-12-20T04:55:13;4.80;99.90
5675;DHT22;2860;54.284;10.158;2023-12-20T04:57:39;4.80;99.90
5675;DHT22;2860;54.284;10.158;2023-12-20T05:00:05;4.80;99.90
5675;DHT22;2860;54.284;10.158;2023-12-20T05:02:31;4.80;99.90
5675;DHT22;2860;54.284;10.158;2023-12-20T05:04:56;4.80;99.90
5675;DHT22;2860;54.284;10.158;2023-12-20T05:07:22;4.80;99.90
5675;DHT22;2860;54.284;10.158;2023-12-20T05:09:47;4.80;99.90
5675;DHT22;2860;54.284;10.158;2023-12-20T05:12:13;4.80;99.90
5675;DHT22;2860;54.284;10.158;2023-12-20T05:14:39;4.80;99.90
5675;DHT22;2860;54.284;10.158;2023-12-20T05:17:04;4.90;99.90
5675;DHT22;2860;54.284;10.158;2023-12-20T05:19:30;4.90;99.90
5675;DHT22;2860;54.284;10.158;2023-12-20T05:21:55;4.90;99.90
5675;DHT22;2860;54.284;10.158;2023-12-20T05:24:21;5.00;99.90
5675;DHT22;2860;54.284;10.158;2023-12-20T05:26:46;5.00;99.90
5675;DHT22;2860;54.284;10.158;2023-12-20T05:29:12;5.10;99.90
5675;DHT22;2860;54.284;10.158;2023-12-20T05:31:37;5.10;99.90
5675;DHT22;2860;54.284;10.158;2023-12-20T05:34:03;5.20;99.90
5675;DHT22;2860;54.284;10.158;2023-12-20T05:36:29;5.20;99.90
5675;DHT22;2860;54.284;10.158;2023-12-20T05:38:54;5.20;99.90
5675;DHT22;2860;54.284;10.158;2023-12-20T05:41:19;5.10;99.90
5675;DHT22;2860;54.284;10.158;2023-12-20T05:43:46;5.10;99.90
5675;DHT22;2860;54.284;10.158;2023-12-20T05:46:12;5.00;99.90
5675;DHT22;2860;54.284;10.158;2023-12-20T05:48:37;4.90;99.90
5675;DHT22;2860;54.284;10.158;2023-12-20T05:51:03;4.80;99.90
5675;DHT22;2860;54.284;10.158;2023-12-20T05:53:29;4.80;99.90
5675;DHT22;2860;54.284;10.158;2023-12-20T05:55:54;4.80;99.90
5675;DHT22;2860;54.284;10.158;2023-12-20T05:58:20;4.80;99.90
5675;DHT22;2860;54.284;10.158;2023-12-20T06:00:45;4.80;99.90
5675;DHT22;2860;54.284;10.158;2023-12-20T06:03:11;4.80;99.90
5675;DHT22;2860;54.284;10.158;2023-12-20T06:05:36;4.80;99.90
5675;DHT22;2860;54.284;10.158;2023-12-20T06:08:02;4.80;99.90
5675;DHT22;2860;54.284;10.158;2023-12-20T06:10:28;4.80;99.90
5675;DHT22;2860;54.284;10.158;2023-12-20T06:12:54;4.80;99.90
5675;DHT22;2860;54.284;10.158;2023-12-20T06:15:20;4.80;99.90
5675;DHT22;2860;54.284;10.158;2023-12-20T06:17:46;4.80;99.90
5675;DHT22;2860;54.284;10.158;2023-12-20T06:20:12;4.80;99.90
5675;DHT22;2860;54.284;10.158;2023-12-20T06:22:38;4.80;99.90
5675;DHT22;2860;54.284;10.158;2023-12-20T06:25:04;4.80;99.90
5675;DHT22;2860;54.284;10.158;2023-12-20T06:27:30;4.80;99.90
5675;DHT22;2860;54.284;10.158;2023-12-20T06:29:57;4.90;99.90
5675;DHT22;2860;54.284;10.158;2023-12-20T06:32:23;5.00;99.90
5675;DHT22;2860;54.284;10.158;2023-12-20T06:34:49;5.00;99.90
5675;DHT22;2860;54.284;10.158;2023-12-20T06:37:15;5.00;99.90
5675;DHT22;2860;54.284;10.158;2023-12-20T06:39:40;5.10;99.90
5675;DHT22;2860;54.284;10.158;2023-12-20T06:42:06;5.10;99.90
5675;DHT22;2860;54.284;10.158;2023-12-20T06:44:31;5.10;99.90
5675;DHT22;2860;54.284;10.158;2023-12-20T06:46:57;5.10;99.90
5675;DHT22;2860;54.284;10.158;2023-12-20T06:49:23;5.20;99.90
5675;DHT22;2860;54.284;10.158;2023-12-20T06:51:49;5.20;99.90
5675;DHT22;2860;54.284;10.158;2023-12-20T06:54:14;5.20;99.90
5675;DHT22;2860;54.284;10.158;2023-12-20T06:56:40;5.30;99.90
5675;DHT22;2860;54.284;10.158;2023-12-20T06:59:06;5.30;99.90
5675;DHT22;2860;54.284;10.158;2023-12-20T07:01:32;5.30;99.90
5675;DHT22;2860;54.284;10.158;2023-12-20T07:03:57;5.40;99.90
5675;DHT22;2860;54.284;10.158;2023-12-20T07:06:23;5.30;99.90
5675;DHT22;2860;54.284;10.158;2023-12-20T07:08:49;5.40;99.90
5675;DHT22;2860;54.284;10.158;2023-12-20T07:11:14;5.30;99.90
5675;DHT22;2860;54.284;10.158;2023-12-20T07:13:40;5.30;99.90
5675;DHT22;2860;54.284;10.158;2023-12-20T07:16:05;5.30;99.90
5675;DHT22;2860;54.284;10.158;2023-12-20T07:18:31;5.30;99.90
5675;DHT22;2860;54.284;10.158;2023-12-20T07:20:57;5.30;99.90
5675;DHT22;2860;54.284;10.158;2023-12-20T07:23:22;5.30;99.90
5675;DHT22;2860;54.284;10.158;2023-12-20T07:25:48;5.30;99.90
5675;DHT22;2860;54.284;10.158;2023-12-20T07:28:13;5.20;99.90
5675;DHT22;2860;54.284;10.158;2023-12-20T07:30:39;5.20;99.90
5675;DHT22;2860;54.284;10.158;2023-12-20T07:33:05;5.20;99.90
5675;DHT22;2860;54.284;10.158;2023-12-20T07:35:30;5.10;99.90
5675;DHT22;2860;54.284;10.158;2023-12-20T07:37:56;5.10;99.90
5675;DHT22;2860;54.284;10.158;2023-12-20T07:40:21;5.10;99.90
5675;DHT22;2860;54.284;10.158;2023-12-20T07:42:49;5.10;99.90
5675;DHT22;2860;54.284;10.158;2023-12-20T07:45:15;5.20;99.90
5675;DHT22;2860;54.284;10.158;2023-12-20T07:47:40;5.20;99.90
5675;DHT22;2860;54.284;10.158;2023-12-20T07:50:06;5.20;99.90
5675;DHT22;2860;54.284;10.158;2023-12-20T07:52:32;5.10;99.90
5675;DHT22;2860;54.284;10.158;2023-12-20T07:54:57;5.10;99.90
5675;DHT22;2860;54.284;10.158;2023-12-20T07:57:23;5.10;99.90
5675;DHT22;2860;54.284;10.158;2023-12-20T07:59:49;5.00;99.90
5675;DHT22;2860;54.284;10.158;2023-12-20T08:02:14;5.00;99.90
5675;DHT22;2860;54.284;10.158;2023-12-20T08:04:40;5.00;99.90
5675;DHT22;2860;54.284;10.158;2023-12-20T08:07:06;5.00;99.90
5675;DHT22;2860;54.284;10.158;2023-12-20T08:09:32;5.00;99.90
5675;DHT22;2860;54.284;10.158;2023-12-20T08:11:59;5.00;99.90
5675;DHT22;2860;54.284;10.158;2023-12-20T08:14:25;5.10;99.90
5675;DHT22;2860;54.284;10.158;2023-12-20T08:16:57;5.20;99.90
5675;DHT22;2860;54.284;10.158;2023-12-20T08:19:22;5.20;99.90
5675;DHT22;2860;54.284;10.158;2023-12-20T08:21:48;5.20;99.90
5675;DHT22;2860;54.284;10.158;2023-12-20T08:24:13;5.10;99.90
5675;DHT22;2860;54.284;10.158;2023-12-20T08:26:39;5.10;99.90
5675;DHT22;2860;54.284;10.158;2023-12-20T08:29:04;5.10;99.90
5675;DHT22;2860;54.284;10.158;2023-12-20T08:31:30;5.10;99.90
5675;DHT22;2860;54.284;10.158;2023-12-20T08:33:55;5.10;99.90
5675;DHT22;2860;54.284;10.158;2023-12-20T08:36:21;5.10;99.90
5675;DHT22;2860;54.284;10.158;2023-12-20T08:38:48;5.10;99.90
5675;DHT22;2860;54.284;10.158;2023-12-20T08:41:14;5.10;99.90
5675;DHT22;2860;54.284;10.158;2023-12-20T08:43:39;5.20;99.90
5675;DHT22;2860;54.284;10.158;2023-12-20T08:46:08;5.20;99.90
5675;DHT22;2860;54.284;10.158;2023-12-20T08:48:35;5.10;99.90
5675;DHT22;2860;54.284;10.158;2023-12-20T08:51:00;5.00;99.90
5675;DHT22;2860;54.284;10.158;2023-12-20T08:53:26;4.90;99.90
5675;DHT22;2860;54.284;10.158;2023-12-20T08:55:52;4.80;99.90
5675;DHT22;2860;54.284;10.158;2023-12-20T08:58:17;4.70;99.90
5675;DHT22;2860;54.284;10.158;2023-12-20T09:00:43;4.60;99.90
5675;DHT22;2860;54.284;10.158;2023-12-20T09:03:09;4.60;99.90
5675;DHT22;2860;54.284;10.158;2023-12-20T09:05:34;4.60;99.90
5675;DHT22;2860;54.284;10.158;2023-12-20T09:08:00;4.50;99.90
5675;DHT22;2860;54.284;10.158;2023-12-20T09:10:25;4.40;99.90
5675;DHT22;2860;54.284;10.158;2023-12-20T09:12:52;4.40;99.90
5675;DHT22;2860;54.284;10.158;2023-12-20T09:15:22;4.40;99.90
5675;DHT22;2860;54.284;10.158;2023-12-20T09:17:48;4.40;99.90
5675;DHT22;2860;54.284;10.158;2023-12-20T09:20:13;4.40;99.90
5675;DHT22;2860;54.284;10.158;2023-12-20T09:22:39;4.40;99.90
5675;DHT22;2860;54.284;10.158;2023-12-20T09:25:05;4.30;99.90
5675;DHT22;2860;54.284;10.158;2023-12-20T09:27:31;4.30;99.90
5675;DHT22;2860;54.284;10.158;2023-12-20T09:29:56;4.30;99.90
5675;DHT22;2860;54.284;10.158;2023-12-20T09:32:22;4.30;99.90
5675;DHT22;2860;54.284;10.158;2023-12-20T09:34:47;4.40;99.90
5675;DHT22;2860;54.284;10.158;2023-12-20T09:37:13;4.40;99.90
5675;DHT22;2860;54.284;10.158;2023-12-20T09:39:39;4.40;99.90
5675;DHT22;2860;54.284;10.158;2023-12-20T09:42:05;4.40;99.90
5675;DHT22;2860;54.284;10.158;2023-12-20T09:44:32;4.40;99.90
5675;DHT22;2860;54.284;10.158;2023-12-20T09:47:03;4.40;99.90
5675;DHT22;2860;54.284;10.158;2023-12-20T09:49:29;4.40;99.90
5675;DHT22;2860;54.284;10.158;2023-12-20T09:51:56;4.50;99.90
5675;DHT22;2860;54.284;10.158;2023-12-20T09:54:29;4.40;99.90
5675;DHT22;2860;54.284;10.158;2023-12-20T09:56:54;4.40;99.90
5675;DHT22;2860;54.284;10.158;2023-12-20T09:59:20;4.40;99.90
5675;DHT22;2860;54.284;10.158;2023-12-20T10:01:45;4.40;99.90
5675;DHT22;2860;54.284;10.158;2023-12-20T10:04:12;4.40;99.90
5675;DHT22;2860;54.284;10.158;2023-12-20T10:06:42;4.40;99.90
5675;DHT22;2860;54.284;10.158;2023-12-20T10:09:09;4.40;99.90
5675;DHT22;2860;54.284;10.158;2023-12-20T10:11:36;4.30;99.90
5675;DHT22;2860;54.284;10.158;2023-12-20T10:14:03;4.30;99.90
5675;DHT22;2860;54.284;10.158;2023-12-20T10:16:29;4.40;99.90
5675;DHT22;2860;54.284;10.158;2023-12-20T10:18:56;4.40;99.90
5675;DHT22;2860;54.284;10.158;2023-12-20T10:21:25;4.50;99.90
5675;DHT22;2860;54.284;10.158;2023-12-20T10:23:55;4.50;99.90
5675;DHT22;2860;54.284;10.158;2023-12-20T10:26:22;4.60;99.90
5675;DHT22;2860;54.284;10.158;2023-12-20T10:28:52;4.80;99.90
5675;DHT22;2860;54.284;10.158;2023-12-20T10:31:32;5.10;99.90
5675;DHT22;2860;54.284;10.158;2023-12-20T10:33:59;5.10;99.90
5675;DHT22;2860;54.284;10.158;2023-12-20T10:36:27;5.00;99.90
5675;DHT22;2860;54.284;10.158;2023-12-20T10:38:54;5.00;99.90
5675;DHT22;2860;54.284;10.158;2023-12-20T10:41:31;5.00;99.90
5675;DHT22;2860;54.284;10.158;2023-12-20T10:44:01;4.90;99.90
5675;DHT22;2860;54.284;10.158;2023-12-20T10:46:28;4.80;99.90
5675;DHT22;2860;54.284;10.158;2023-12-20T10:48:56;4.70;99.90
5675;DHT22;2860;54.284;10.158;2023-12-20T10:51:22;4.70;99.90
5675;DHT22;2860;54.284;10.158;2023-12-20T10:53:50;4.60;99.90
5675;DHT22;2860;54.284;10.158;2023-12-20T10:56:17;4.60;99.90
5675;DHT22;2860;54.284;10.158;2023-12-20T10:58:43;4.70;99.90
5675;DHT22;2860;54.284;10.158;2023-12-20T11:01:12;4.70;99.90
5675;DHT22;2860;54.284;10.158;2023-12-20T11:03:38;4.80;99.90
5675;DHT22;2860;54.284;10.158;2023-12-20T11:06:36;4.80;99.90
5675;DHT22;2860;54.284;10.158;2023-12-20T11:09:26;4.80;99.90
5675;DHT22;2860;54.284;10.158;2023-12-20T11:14:51;4.70;99.90
5675;DHT22;2860;54.284;10.158;2023-12-20T11:17:17;4.60;99.90
5675;DHT22;2860;54.284;10.158;2023-12-20T11:20:03;4.50;99.90
5675;DHT22;2860;54.284;10.158;2023-12-20T11:22:30;4.50;99.90
5675;DHT22;2860;54.284;10.158;2023-12-20T11:25:04;4.60;99.90
5675;DHT22;2860;54.284;10.158;2023-12-20T11:27:31;4.70;99.90
5675;DHT22;2860;54.284;10.158;2023-12-20T11:29:58;4.80;99.90
5675;DHT22;2860;54.284;10.158;2023-12-20T11:34:58;4.90;99.90
5675;DHT22;2860;54.284;10.158;2023-12-20T11:37:29;5.00;99.90
5675;DHT22;2860;54.284;10.158;2023-12-20T11:39:56;5.10;99.90
5675;DHT22;2860;54.284;10.158;2023-12-20T11:42:25;5.10;99.90
5675;DHT22;2860;54.284;10.158;2023-12-20T11:44:50;5.20;99.90
5675;DHT22;2860;54.284;10.158;2023-12-20T11:47:16;5.10;99.90
5675;DHT22;2860;54.284;10.158;2023-12-20T11:49:46;5.10;99.90
5675;DHT22;2860;54.284;10.158;2023-12-20T11:52:12;5.00;99.90
5675;DHT22;2860;54.284;10.158;2023-12-20T11:54:38;5.00;99.90
5675;DHT22;2860;54.284;10.158;2023-12-20T11:57:04;5.00;99.90
5675;DHT22;2860;54.284;10.158;2023-12-20T11:59:31;5.00;99.90
5675;DHT22;2860;54.284;10.158;2023-12-20T12:01:56;5.00;99.90
5675;DHT22;2860;54.284;10.158;2023-12-20T12:04:26;5.00;99.90
5675;DHT22;2860;54.284;10.158;2023-12-20T12:06:52;5.00;99.90
5675;DHT22;2860;54.284;10.158;2023-12-20T12:09:17;5.00;99.90
5675;DHT22;2860;54.284;10.158;2023-12-20T12:11:43;5.00;99.90
5675;DHT22;2860;54.284;10.158;2023-12-20T12:14:09;5.00;99.90
5675;DHT22;2860;54.284;10.158;2023-12-20T12:16:35;5.00;99.90
5675;DHT22;2860;54.284;10.158;2023-12-20T12:19:00;5.10;99.90
5675;DHT22;2860;54.284;10.158;2023-12-20T12:21:26;5.10;99.90
5675;DHT22;2860;54.284;10.158;2023-12-20T12:23:51;5.20;99.90
5675;DHT22;2860;54.284;10.158;2023-12-20T12:26:18;5.30;99.90
5675;DHT22;2860;54.284;10.158;2023-12-20T12:28:44;5.50;99.90
5675;DHT22;2860;54.284;10.158;2023-12-20T12:31:14;5.60;99.90
5675;DHT22;2860;54.284;10.158;2023-12-20T12:33:42;5.90;99.90
5675;DHT22;2860;54.284;10.158;2023-12-20T12:36:10;6.10;99.90
5675;DHT22;2860;54.284;10.158;2023-12-20T12:38:36;6.20;99.90
5675;DHT22;2860;54.284;10.158;2023-12-20T12:41:02;6.30;99.90
5675;DHT22;2860;54.284;10.158;2023-12-20T12:43:27;6.40;99.90
5675;DHT22;2860;54.284;10.158;2023-12-20T12:45:53;6.20;99.90
5675;DHT22;2860;54.284;10.158;2023-12-20T12:48:19;6.10;99.90
5675;DHT22;2860;54.284;10.158;2023-12-20T12:50:46;6.00;99.90
5675;DHT22;2860;54.284;10.158;2023-12-20T12:53:11;5.70;99.90
5675;DHT22;2860;54.284;10.158;2023-12-20T12:55:37;5.50;99.90
5675;DHT22;2860;54.284;10.158;2023-12-20T12:58:02;5.40;99.90
5675;DHT22;2860;54.284;10.158;2023-12-20T13:00:28;5.40;99.90
5675;DHT22;2860;54.284;10.158;2023-12-20T13:02:54;5.30;99.90
5675;DHT22;2860;54.284;10.158;2023-12-20T13:05:20;5.30;99.90
5675;DHT22;2860;54.284;10.158;2023-12-20T13:07:48;5.30;99.90
5675;DHT22;2860;54.284;10.158;2023-12-20T13:10:13;5.30;99.90
5675;DHT22;2860;54.284;10.158;2023-12-20T13:12:42;5.30;99.90
5675;DHT22;2860;54.284;10.158;2023-12-20T13:15:07;5.30;99.90
5675;DHT22;2860;54.284;10.158;2023-12-20T13:17:34;5.30;99.90
5675;DHT22;2860;54.284;10.158;2023-12-20T13:19:59;5.30;99.90
5675;DHT22;2860;54.284;10.158;2023-12-20T13:22:25;5.30;99.90
5675;DHT22;2860;54.284;10.158;2023-12-20T13:24:51;5.40;99.90
5675;DHT22;2860;54.284;10.158;2023-12-20T13:27:16;5.40;99.90
5675;DHT22;2860;54.284;10.158;2023-12-20T13:29:41;5.40;99.90
5675;DHT22;2860;54.284;10.158;2023-12-20T13:32:07;5.40;99.90
5675;DHT22;2860;54.284;10.158;2023-12-20T13:34:33;5.40;99.90
5675;DHT22;2860;54.284;10.158;2023-12-20T13:36:58;5.40;99.90
5675;DHT22;2860;54.284;10.158;2023-12-20T13:39:24;5.40;99.90
5675;DHT22;2860;54.284;10.158;2023-12-20T13:41:49;5.40;99.90
5675;DHT22;2860;54.284;10.158;2023-12-20T13:44:15;5.50;99.90
5675;DHT22;2860;54.284;10.158;2023-12-20T13:46:41;5.50;99.90
5675;DHT22;2860;54.284;10.158;2023-12-20T13:49:06;5.50;99.90
5675;DHT22;2860;54.284;10.158;2023-12-20T13:51:32;5.50;99.90
5675;DHT22;2860;54.284;10.158;2023-12-20T13:53:58;5.40;99.90
5675;DHT22;2860;54.284;10.158;2023-12-20T13:56:24;5.40;99.90
5675;DHT22;2860;54.284;10.158;2023-12-20T13:58:50;5.40;99.90
5675;DHT22;2860;54.284;10.158;2023-12-20T14:01:16;5.40;99.90
5675;DHT22;2860;54.284;10.158;2023-12-20T14:03:41;5.40;99.90
5675;DHT22;2860;54.284;10.158;2023-12-20T14:06:07;5.40;99.90
5675;DHT22;2860;54.284;10.158;2023-12-20T14:08:32;5.40;99.90
5675;DHT22;2860;54.284;10.158;2023-12-20T14:10:58;5.30;99.90
5675;DHT22;2860;54.284;10.158;2023-12-20T14:13:23;5.20;99.90
5675;DHT22;2860;54.284;10.158;2023-12-20T14:15:49;5.10;99.90
5675;DHT22;2860;54.284;10.158;2023-12-20T14:18:14;5.10;99.90
5675;DHT22;2860;54.284;10.158;2023-12-20T14:20:40;5.00;99.90
5675;DHT22;2860;54.284;10.158;2023-12-20T14:23:08;4.90;99.90
5675;DHT22;2860;54.284;10.158;2023-12-20T14:25:35;4.90;99.90
5675;DHT22;2860;54.284;10.158;2023-12-20T14:28:05;4.80;99.90
5675;DHT22;2860;54.284;10.158;2023-12-20T14:30:31;4.80;99.90
5675;DHT22;2860;54.284;10.158;2023-12-20T14:32:57;4.70;99.90
5675;DHT22;2860;54.284;10.158;2023-12-20T14:35:22;4.60;99.90
5675;DHT22;2860;54.284;10.158;2023-12-20T14:37:48;4.60;99.90
5675;DHT22;2860;54.284;10.158;2023-12-20T14:40:15;4.50;99.90
5675;DHT22;2860;54.284;10.158;2023-12-20T14:42:42;4.50;99.90
5675;DHT22;2860;54.284;10.158;2023-12-20T14:45:08;4.50;99.90
5675;DHT22;2860;54.284;10.158;2023-12-20T14:47:34;4.40;99.90
5675;DHT22;2860;54.284;10.158;2023-12-20T14:50:02;4.40;99.90
5675;DHT22;2860;54.284;10.158;2023-12-20T14:52:28;4.40;99.90
5675;DHT22;2860;54.284;10.158;2023-12-20T14:54:53;4.50;99.90
5675;DHT22;2860;54.284;10.158;2023-12-20T14:57:18;4.40;99.90
5675;DHT22;2860;54.284;10.158;2023-12-20T14:59:44;4.30;99.90
5675;DHT22;2860;54.284;10.158;2023-12-20T15:02:10;4.30;99.90
5675;DHT22;2860;54.284;10.158;2023-12-20T15:04:35;4.20;99.90
5675;DHT22;2860;54.284;10.158;2023-12-20T15:07:01;4.20;99.90
5675;DHT22;2860;54.284;10.158;2023-12-20T15:09:26;4.10;99.90
5675;DHT22;2860;54.284;10.158;2023-12-20T15:11:54;4.10;99.90
5675;DHT22;2860;54.284;10.158;2023-12-20T15:14:41;4.10;99.90
5675;DHT22;2860;54.284;10.158;2023-12-20T15:17:06;4.10;99.90
5675;DHT22;2860;54.284;10.158;2023-12-20T15:19:32;4.10;99.90
5675;DHT22;2860;54.284;10.158;2023-12-20T15:21:57;4.20;99.90
5675;DHT22;2860;54.284;10.158;2023-12-20T15:24:25;4.20;99.90
5675;DHT22;2860;54.284;10.158;2023-12-20T15:27:02;4.10;99.90
5675;DHT22;2860;54.284;10.158;2023-12-20T15:29:28;4.20;99.90
5675;DHT22;2860;54.284;10.158;2023-12-20T15:31:53;4.10;99.90
5675;DHT22;2860;54.284;10.158;2023-12-20T15:34:19;4.10;99.90
5675;DHT22;2860;54.284;10.158;2023-12-20T15:36:45;4.00;99.90
5675;DHT22;2860;54.284;10.158;2023-12-20T15:39:11;4.00;99.90
5675;DHT22;2860;54.284;10.158;2023-12-20T15:41:39;4.00;99.90
5675;DHT22;2860;54.284;10.158;2023-12-20T15:44:05;4.00;99.90
5675;DHT22;2860;54.284;10.158;2023-12-20T15:46:31;4.00;99.90
5675;DHT22;2860;54.284;10.158;2023-12-20T15:48:56;4.10;99.90
5675;DHT22;2860;54.284;10.158;2023-12-20T15:51:22;4.10;99.90
5675;DHT22;2860;54.284;10.158;2023-12-20T15:53:48;4.30;99.90
5675;DHT22;2860;54.284;10.158;2023-12-20T15:56:14;4.30;99.90
5675;DHT22;2860;54.284;10.158;2023-12-20T15:58:39;4.40;99.90
5675;DHT22;2860;54.284;10.158;2023-12-20T16:01:05;4.30;99.90